sensor_id;sensor_type;location;lat;lon;timestamp;temperature;humidity
41838;DHT22;27511;52.042;5.178;2022-07-04T00:00:48;18.70;99.90
41838;DHT22;27511;52.042;5.178;2022-07-04T00:03:14;18.70;99.90
41838;DHT22;27511;52.042;5.178;2022-07-04T00:05:40;18.70;99.90
41838;DHT22;27511;52.042;5.178;2022-07-04T00:08:05;18.70;99.90
41838;DHT22;27511;52.042;5.178;2022-07-04T00:10:31;18.80;99.90
41838;DHT22;27511;52.042;5.178;2022-07-04T00:12:57;18.70;99.90
41838;DHT22;27511;52.042;5.178;2022-07-04T00:15:22;18.70;99.90
41838;DHT22;27511;52.042;5.178;2022-07-04T00:17:49;18.70;99.90
41838;DHT22;27511;52.042;5.178;2022-07-04T00:20:14;18.60;99.90
41838;DHT22;27511;52.042;5.178;2022-07-04T00:22:40;18.60;99.90
41838;DHT22;27511;52.042;5.178;2022-07-04T00:25:06;18.60;99.90
41838;DHT22;27511;52.042;5.178;2022-07-04T00:27:32;18.60;99.90
41838;DHT22;27511;52.042;5.178;2022-07-04T00:29:58;18.50;99.90
41838;DHT22;27511;52.042;5.178;2022-07-04T00:32:23;18.60;99.90
41838;DHT22;27511;52.042;5.178;2022-07-04T00:34:49;18.50;99.90
41838;DHT22;27511;52.042;5.178;2022-07-04T00:37:14;18.50;99.90
41838;DHT22;27511;52.042;5.178;2022-07-04T00:39:40;18.50;99.90
41838;DHT22;27511;52.042;5.178;2022-07-04T00:42:06;18.50;99.90
41838;DHT22;27511;52.042;5.178;2022-07-04T00:44:32;18.40;99.90
41838;DHT22;27511;52.042;5.178;2022-07-04T00:47:02;18.40;99.90
41838;DHT22;27511;52.042;5.178;2022-07-04T00:49:28;18.30;99.90
41838;DHT22;27511;52.042;5.178;2022-07-04T00:51:54;18.30;99.90
41838;DHT22;27511;52.042;5.178;2022-07-04T00:54:20;18.30;99.90
41838;DHT22;27511;52.042;5.178;2022-07-04T00:56:50;18.20;99.90
41838;DHT22;27511;52.042;5.178;2022-07-04T00:59:15;18.20;99.90
41838;DHT22;27511;52.042;5.178;2022-07-04T01:01:41;18.20;99.90
41838;DHT22;27511;52.042;5.178;2022-07-04T01:04:07;18.20;99.90
41838;DHT22;27511;52.042;5.178;2022-07-04T01:06:33;18.10;99.90
41838;DHT22;27511;52.042;5.178;2022-07-04T01:08:59;18.10;99.90
41838;DHT22;27511;52.042;5.178;2022-07-04T01:11:25;18.10;99.90
41838;DHT22;27511;52.042;5.178;2022-07-04T01:13:53;18.10;99.90
41838;DHT22;27511;52.042;5.178;2022-07-04T01:16:19;18.10;99.90
41838;DHT22;27511;52.042;5.178;2022-07-04T01:18:44;18.00;99.90
41838;DHT22;27511;52.042;5.178;2022-07-04T01:21:10;18.10;99.90
41838;DHT22;27511;52.042;5.178;2022-07-04T01:23:38;18.10;99.90
41838;DHT22;27511;52.042;5.178;2022-07-04T01:26:04;18.00;99.90
41838;DHT22;27511;52.042;5.178;2022-07-04T01:28:30;18.00;99.90
41838;DHT22;27511;52.042;5.178;2022-07-04T01:30:55;18.00;99.90
41838;DHT22;27511;52.042;5.178;2022-07-04T01:33:21;17.90;99.90
41838;DHT22;27511;52.042;5.178;2022-07-04T01:35:47;18.00;99.90
41838;DHT22;27511;52.042;5.178;2022-07-04T01:38:13;17.90;99.90
41838;DHT22;27511;52.042;5.178;2022-07-04T01:40:39;17.90;99.90
41838;DHT22;27511;52.042;5.178;2022-07-04T01:43:04;17.90;99.90
41838;DHT22;27511;52.042;5.178;2022-07-04T01:45:30;17.80;99.90
41838;DHT22;27511;52.042;5.178;2022-07-04T01:48:00;17.80;99.90
41838;DHT22;27511;52.042;5.178;2022-07-04T01:50:25;17.80;99.90
41838;DHT22;27511;52.042;5.178;2022-07-04T01:52:51;17.80;99.90
41838;DHT22;27511;52.042;5.178;2022-07-04T01:55:16;17.80;99.90
41838;DHT22;27511;52.042;5.178;2022-07-04T01:57:42;17.80;99.90
41838;DHT22;27511;52.042;5.178;2022-07-04T02:00:09;17.80;99.90
41838;DHT22;27511;52.042;5.178;2022-07-04T02:02:54;17.80;99.90
41838;DHT22;27511;52.042;5.178;2022-07-04T02:05:20;17.80;99.90
41838;DHT22;27511;52.042;5.178;2022-07-04T02:07:47;17.70;99.90
41838;DHT22;27511;52.042;5.178;2022-07-04T02:10:13;17.70;99.90
41838;DHT22;27511;52.042;5.178;2022-07-04T02:12:39;17.70;99.90
41838;DHT22;27511;52.042;5.178;2022-07-04T02:15:23;17.70;99.90
41838;DHT22;27511;52.042;5.178;2022-07-04T02:17:49;17.70;99.90
41838;DHT22;27511;52.042;5.178;2022-07-04T02:20:15;17.70;99.90
41838;DHT22;27511;52.042;5.178;2022-07-04T02:22:40;17.70;99.90
41838;DHT22;27511;52.042;5.178;2022-07-04T02:25:06;17.70;99.90
41838;DHT22;27511;52.042;5.178;2022-07-04T02:27:37;17.70;99.90
41838;DHT22;27511;52.042;5.178;2022-07-04T02:30:04;17.80;99.90
41838;DHT22;27511;52.042;5.178;2022-07-04T02:32:30;17.70;99.90
41838;DHT22;27511;52.042;5.178;2022-07-04T02:34:55;17.60;99.90
41838;DHT22;27511;52.042;5.178;2022-07-04T02:37:21;17.70;99.90
41838;DHT22;27511;52.042;5.178;2022-07-04T02:39:46;17.60;99.90
41838;DHT22;27511;52.042;5.178;2022-07-04T02:42:12;17.70;99.90
41838;DHT22;27511;52.042;5.178;2022-07-04T02:44:37;17.60;99.90
41838;DHT22;27511;52.042;5.178;2022-07-04T02:47:03;17.70;99.90
41838;DHT22;27511;52.042;5.178;2022-07-04T02:49:29;17.60;99.90
41838;DHT22;27511;52.042;5.178;2022-07-04T02:51:54;17.60;99.90
41838;DHT22;27511;52.042;5.178;2022-07-04T02:54:20;17.60;99.90
41838;DHT22;27511;52.042;5.178;2022-07-04T02:56:45;17.60;99.90
41838;DHT22;27511;52.042;5.178;2022-07-04T02:59:11;17.60;99.90
41838;DHT22;27511;52.042;5.178;2022-07-04T03:01:36;17.60;99.90
41838;DHT22;27511;52.042;5.178;2022-07-04T03:04:02;17.60;99.90
41838;DHT22;27511;52.042;5.178;2022-07-04T03:06:29;17.60;99.90
41838;DHT22;27511;52.042;5.178;2022-07-04T03:08:55;17.50;99.90
41838;DHT22;27511;52.042;5.178;2022-07-04T03:11:20;17.50;99.90
41838;DHT22;27511;52.042;5.178;2022-07-04T03:13:46;17.50;99.90
41838;DHT22;27511;52.042;5.178;2022-07-04T03:16:12;17.50;99.90
41838;DHT22;27511;52.042;5.178;2022-07-04T03:18:38;17.50;99.90
41838;DHT22;27511;52.042;5.178;2022-07-04T03:21:04;17.40;99.90
41838;DHT22;27511;52.042;5.178;2022-07-04T03:23:30;17.40;99.90
41838;DHT22;27511;52.042;5.178;2022-07-04T03:25:56;17.40;99.90
41838;DHT22;27511;52.042;5.178;2022-07-04T03:28:22;17.40;99.90
41838;DHT22;27511;52.042;5.178;2022-07-04T03:30:47;17.50;99.90
41838;DHT22;27511;52.042;5.178;2022-07-04T03:33:13;17.30;99.90
41838;DHT22;27511;52.042;5.178;2022-07-04T03:35:39;17.30;99.90
41838;DHT22;27511;52.042;5.178;2022-07-04T03:38:04;17.30;99.90
41838;DHT22;27511;52.042;5.178;2022-07-04T03:40:30;17.30;99.90
41838;DHT22;27511;52.042;5.178;2022-07-04T03:42:57;17.30;99.90
41838;DHT22;27511;52.042;5.178;2022-07-04T03:45:24;17.30;99.90
41838;DHT22;27511;52.042;5.178;2022-07-04T03:47:50;17.30;99.90
41838;DHT22;27511;52.042;5.178;2022-07-04T03:50:16;17.30;99.90
41838;DHT22;27511;52.042;5.178;2022-07-04T03:52:42;17.30;99.90
41838;DHT22;27511;52.042;5.178;2022-07-04T03:55:08;17.30;99.90
41838;DHT22;27511;52.042;5.178;2022-07-04T03:57:34;17.30;99.90
41838;DHT22;27511;52.042;5.178;2022-07-04T03:59:59;17.30;99.90
41838;DHT22;27511;52.042;5.178;2022-07-04T04:02:25;17.30;99.90
41838;DHT22;27511;52.042;5.178;2022-07-04T04:04:50;17.30;99.90
41838;DHT22;27511;52.042;5.178;2022-07-04T04:07:34;17.30;99.90
41838;DHT22;27511;52.042;5.178;2022-07-04T04:10:00;17.30;99.90
41838;DHT22;27511;52.042;5.178;2022-07-04T04:12:25;17.40;99.90
41838;DHT22;27511;52.042;5.178;2022-07-04T04:14:51;17.30;99.90
41838;DHT22;27511;52.042;5.178;2022-07-04T04:17:16;17.40;99.90
41838;DHT22;27511;52.042;5.178;2022-07-04T04:19:42;17.40;99.90
41838;DHT22;27511;52.042;5.178;2022-07-04T04:22:08;17.40;99.90
41838;DHT22;27511;52.042;5.178;2022-07-04T04:24:33;17.50;99.90
41838;DHT22;27511;52.042;5.178;2022-07-04T04:26:59;17.60;99.90
41838;DHT22;27511;52.042;5.178;2022-07-04T04:29:24;17.60;99.90
41838;DHT22;27511;52.042;5.178;2022-07-04T04:31:50;17.60;99.90
41838;DHT22;27511;52.042;5.178;2022-07-04T04:34:16;17.60;99.90
41838;DHT22;27511;52.042;5.178;2022-07-04T04:36:41;17.80;99.90
41838;DHT22;27511;52.042;5.178;2022-07-04T04:39:07;17.70;99.90
41838;DHT22;27511;52.042;5.178;2022-07-04T04:41:32;17.80;99.90
41838;DHT22;27511;52.042;5.178;2022-07-04T04:43:58;17.90;99.90
41838;DHT22;27511;52.042;5.178;2022-07-04T04:46:24;18.00;99.90
41838;DHT22;27511;52.042;5.178;2022-07-04T04:48:49;18.00;99.90
41838;DHT22;27511;52.042;5.178;2022-07-04T04:51:15;18.10;99.90
41838;DHT22;27511;52.042;5.178;2022-07-04T04:53:40;18.10;99.90
41838;DHT22;27511;52.042;5.178;2022-07-04T04:56:06;18.10;99.90
41838;DHT22;27511;52.042;5.178;2022-07-04T04:58:31;18.20;99.90
41838;DHT22;27511;52.042;5.178;2022-07-04T05:00:57;18.30;99.90
41838;DHT22;27511;52.042;5.178;2022-07-04T05:03:23;18.30;99.90
41838;DHT22;27511;52.042;5.178;2022-07-04T05:05:48;18.30;99.90
41838;DHT22;27511;52.042;5.178;2022-07-04T05:08:14;18.30;99.90
41838;DHT22;27511;52.042;5.178;2022-07-04T05:10:39;18.30;99.90
41838;DHT22;27511;52.042;5.178;2022-07-04T05:13:05;18.40;99.90
41838;DHT22;27511;52.042;5.178;2022-07-04T05:15:31;18.40;99.90
41838;DHT22;27511;52.042;5.178;2022-07-04T05:17:57;18.50;99.90
41838;DHT22;27511;52.042;5.178;2022-07-04T05:20:23;18.40;99.90
41838;DHT22;27511;52.042;5.178;2022-07-04T05:22:48;18.40;99.90
41838;DHT22;27511;52.042;5.178;2022-07-04T05:25:14;18.50;99.90
41838;DHT22;27511;52.042;5.178;2022-07-04T05:27:40;18.50;99.90
41838;DHT22;27511;52.042;5.178;2022-07-04T05:30:06;18.60;99.90
41838;DHT22;27511;52.042;5.178;2022-07-04T05:32:32;18.70;99.90
41838;DHT22;27511;52.042;5.178;2022-07-04T05:34:57;18.80;99.90
41838;DHT22;27511;52.042;5.178;2022-07-04T05:37:23;18.90;99.90
41838;DHT22;27511;52.042;5.178;2022-07-04T05:39:49;18.80;99.90
41838;DHT22;27511;52.042;5.178;2022-07-04T05:42:15;18.90;99.90
41838;DHT22;27511;52.042;5.178;2022-07-04T05:44:41;19.10;99.90
41838;DHT22;27511;52.042;5.178;2022-07-04T05:47:07;19.10;99.90
41838;DHT22;27511;52.042;5.178;2022-07-04T05:49:33;19.10;99.90
41838;DHT22;27511;52.042;5.178;2022-07-04T05:51:58;19.30;99.90
41838;DHT22;27511;52.042;5.178;2022-07-04T05:54:24;19.30;99.90
41838;DHT22;27511;52.042;5.178;2022-07-04T05:56:50;19.40;99.90
41838;DHT22;27511;52.042;5.178;2022-07-04T05:59:15;19.30;99.90
41838;DHT22;27511;52.042;5.178;2022-07-04T06:01:41;19.40;99.90
41838;DHT22;27511;52.042;5.178;2022-07-04T06:04:07;19.50;99.90
41838;DHT22;27511;52.042;5.178;2022-07-04T06:06:33;19.50;99.90
41838;DHT22;27511;52.042;5.178;2022-07-04T06:08:59;19.60;99.90
41838;DHT22;27511;52.042;5.178;2022-07-04T06:11:25;19.60;99.90
41838;DHT22;27511;52.042;5.178;2022-07-04T06:13:51;19.50;99.90
41838;DHT22;27511;52.042;5.178;2022-07-04T06:16:17;19.60;99.90
41838;DHT22;27511;52.042;5.178;2022-07-04T06:18:43;19.70;99.90
41838;DHT22;27511;52.042;5.178;2022-07-04T06:21:09;19.90;99.90
41838;DHT22;27511;52.042;5.178;2022-07-04T06:23:35;20.00;99.90
41838;DHT22;27511;52.042;5.178;2022-07-04T06:26:01;20.10;99.90
41838;DHT22;27511;52.042;5.178;2022-07-04T06:28:27;20.00;99.90
41838;DHT22;27511;52.042;5.178;2022-07-04T06:30:53;20.00;99.90
41838;DHT22;27511;52.042;5.178;2022-07-04T06:33:18;20.10;99.90
41838;DHT22;27511;52.042;5.178;2022-07-04T06:35:44;20.00;99.90
41838;DHT22;27511;52.042;5.178;2022-07-04T06:38:27;20.00;99.90
41838;DHT22;27511;52.042;5.178;2022-07-04T06:40:55;20.00;99.90
41838;DHT22;27511;52.042;5.178;2022-07-04T06:43:22;20.10;99.90
41838;DHT22;27511;52.042;5.178;2022-07-04T06:45:48;20.20;99.90
41838;DHT22;27511;52.042;5.178;2022-07-04T06:48:13;20.40;99.90
41838;DHT22;27511;52.042;5.178;2022-07-04T06:50:39;20.30;99.90
41838;DHT22;27511;52.042;5.178;2022-07-04T06:53:07;20.30;99.90
41838;DHT22;27511;52.042;5.178;2022-07-04T06:55:33;20.30;99.90
41838;DHT22;27511;52.042;5.178;2022-07-04T06:57:58;20.20;99.90
41838;DHT22;27511;52.042;5.178;2022-07-04T07:00:24;20.30;99.90
41838;DHT22;27511;52.042;5.178;2022-07-04T07:02:50;20.30;99.90
41838;DHT22;27511;52.042;5.178;2022-07-04T07:05:16;20.30;99.90
41838;DHT22;27511;52.042;5.178;2022-07-04T07:07:41;20.50;99.90
41838;DHT22;27511;52.042;5.178;2022-07-04T07:10:07;20.50;99.90
41838;DHT22;27511;52.042;5.178;2022-07-04T07:12:34;20.50;99.90
41838;DHT22;27511;52.042;5.178;2022-07-04T07:15:00;20.50;99.90
41838;DHT22;27511;52.042;5.178;2022-07-04T07:17:27;20.60;99.90
41838;DHT22;27511;52.042;5.178;2022-07-04T07:19:53;20.70;99.90
41838;DHT22;27511;52.042;5.178;2022-07-04T07:22:18;20.80;99.90
41838;DHT22;27511;52.042;5.178;2022-07-04T07:24:44;20.90;99.90
41838;DHT22;27511;52.042;5.178;2022-07-04T07:27:10;20.80;99.90
41838;DHT22;27511;52.042;5.178;2022-07-04T07:29:36;20.90;99.90
41838;DHT22;27511;52.042;5.178;2022-07-04T07:32:04;20.90;99.90
41838;DHT22;27511;52.042;5.178;2022-07-04T07:34:30;21.10;99.90
41838;DHT22;27511;52.042;5.178;2022-07-04T07:36:56;21.00;99.90
41838;DHT22;27511;52.042;5.178;2022-07-04T07:39:21;21.00;99.90
41838;DHT22;27511;52.042;5.178;2022-07-04T07:41:47;21.20;99.90
41838;DHT22;27511;52.042;5.178;2022-07-04T07:44:12;21.20;99.90
41838;DHT22;27511;52.042;5.178;2022-07-04T07:46:39;21.20;99.90
41838;DHT22;27511;52.042;5.178;2022-07-04T07:49:04;21.20;99.90
41838;DHT22;27511;52.042;5.178;2022-07-04T07:51:30;21.40;99.90
41838;DHT22;27511;52.042;5.178;2022-07-04T07:53:56;21.40;99.90
41838;DHT22;27511;52.042;5.178;2022-07-04T07:56:22;21.40;99.90
41838;DHT22;27511;52.042;5.178;2022-07-04T07:58:48;21.60;99.90
41838;DHT22;27511;52.042;5.178;2022-07-04T08:01:14;21.80;99.90
41838;DHT22;27511;52.042;5.178;2022-07-04T08:03:39;21.80;99.90
41838;DHT22;27511;52.042;5.178;2022-07-04T08:06:23;21.70;99.90
41838;DHT22;27511;52.042;5.178;2022-07-04T08:08:49;21.80;99.90
41838;DHT22;27511;52.042;5.178;2022-07-04T08:11:16;21.80;99.90
41838;DHT22;27511;52.042;5.178;2022-07-04T08:13:41;21.70;99.90
41838;DHT22;27511;52.042;5.178;2022-07-04T08:16:07;21.70;99.90
41838;DHT22;27511;52.042;5.178;2022-07-04T08:18:33;21.70;99.90
41838;DHT22;27511;52.042;5.178;2022-07-04T08:20:59;21.80;99.90
41838;DHT22;27511;52.042;5.178;2022-07-04T08:23:25;21.90;99.90
41838;DHT22;27511;52.042;5.178;2022-07-04T08:25:51;22.00;99.90
41838;DHT22;27511;52.042;5.178;2022-07-04T08:28:16;22.10;99.90
41838;DHT22;27511;52.042;5.178;2022-07-04T08:30:42;22.10;99.90
41838;DHT22;27511;52.042;5.178;2022-07-04T08:33:08;22.10;99.90
41838;DHT22;27511;52.042;5.178;2022-07-04T08:35:33;22.20;99.90
41838;DHT22;27511;52.042;5.178;2022-07-04T08:37:59;22.40;99.90
41838;DHT22;27511;52.042;5.178;2022-07-04T08:40:30;22.50;99.90
41838;DHT22;27511;52.042;5.178;2022-07-04T08:42:57;22.50;99.90
41838;DHT22;27511;52.042;5.178;2022-07-04T08:45:28;22.60;99.90
41838;DHT22;27511;52.042;5.178;2022-07-04T08:48:05;22.70;99.90
41838;DHT22;27511;52.042;5.178;2022-07-04T08:50:38;22.60;99.90
41838;DHT22;27511;52.042;5.178;2022-07-04T08:53:11;22.70;99.90
41838;DHT22;27511;52.042;5.178;2022-07-04T08:55:39;22.70;99.90
41838;DHT22;27511;52.042;5.178;2022-07-04T08:58:24;22.80;99.90
41838;DHT22;27511;52.042;5.178;2022-07-04T09:00:59;22.90;99.90
41838;DHT22;27511;52.042;5.178;2022-07-04T09:03:27;22.80;99.90
41838;DHT22;27511;52.042;5.178;2022-07-04T09:05:53;22.70;99.90
41838;DHT22;27511;52.042;5.178;2022-07-04T09:08:19;22.70;99.90
41838;DHT22;27511;52.042;5.178;2022-07-04T09:10:46;22.80;99.90
41838;DHT22;27511;52.042;5.178;2022-07-04T09:13:12;22.90;99.90
41838;DHT22;27511;52.042;5.178;2022-07-04T09:15:41;22.80;99.90
41838;DHT22;27511;52.042;5.178;2022-07-04T09:18:26;22.70;99.90
41838;DHT22;27511;52.042;5.178;2022-07-04T09:20:57;22.70;99.90
41838;DHT22;27511;52.042;5.178;2022-07-04T09:23:25;22.70;99.90
41838;DHT22;27511;52.042;5.178;2022-07-04T09:26:08;22.70;99.90
41838;DHT22;27511;52.042;5.178;2022-07-04T09:28:34;22.70;99.90
41838;DHT22;27511;52.042;5.178;2022-07-04T09:31:19;22.70;99.90
41838;DHT22;27511;52.042;5.178;2022-07-04T09:33:51;22.80;99.90
41838;DHT22;27511;52.042;5.178;2022-07-04T09:36:22;22.90;99.90
41838;DHT22;27511;52.042;5.178;2022-07-04T09:41:55;22.80;99.90
41838;DHT22;27511;52.042;5.178;2022-07-04T09:44:22;22.80;99.90
41838;DHT22;27511;52.042;5.178;2022-07-04T09:46:48;22.70;99.90
41838;DHT22;27511;52.042;5.178;2022-07-04T09:49:17;22.70;99.90
41838;DHT22;27511;52.042;5.178;2022-07-04T09:51:51;22.60;99.90
41838;DHT22;27511;52.042;5.178;2022-07-04T09:54:21;22.70;99.90
41838;DHT22;27511;52.042;5.178;2022-07-04T09:56:50;22.80;99.90
41838;DHT22;27511;52.042;5.178;2022-07-04T09:59:17;23.00;99.90
41838;DHT22;27511;52.042;5.178;2022-07-04T10:01:42;23.10;99.90
41838;DHT22;27511;52.042;5.178;2022-07-04T10:04:08;23.00;99.90
41838;DHT22;27511;52.042;5.178;2022-07-04T10:06:38;23.10;99.90
41838;DHT22;27511;52.042;5.178;2022-07-04T10:09:14;23.10;99.90
41838;DHT22;27511;52.042;5.178;2022-07-04T10:11:41;23.30;99.90
41838;DHT22;27511;52.042;5.178;2022-07-04T10:14:09;23.30;99.90
41838;DHT22;27511;52.042;5.178;2022-07-04T10:16:36;23.10;99.90
41838;DHT22;27511;52.042;5.178;2022-07-04T10:19:04;23.20;99.90
41838;DHT22;27511;52.042;5.178;2022-07-04T10:21:31;23.20;99.90
41838;DHT22;27511;52.042;5.178;2022-07-04T10:23:57;23.20;99.90
41838;DHT22;27511;52.042;5.178;2022-07-04T10:26:23;23.20;99.90
41838;DHT22;27511;52.042;5.178;2022-07-04T10:28:50;23.30;99.90
41838;DHT22;27511;52.042;5.178;2022-07-04T10:31:21;23.10;99.90
41838;DHT22;27511;52.042;5.178;2022-07-04T10:33:48;22.80;99.90
41838;DHT22;27511;52.042;5.178;2022-07-04T10:36:16;22.80;99.90
41838;DHT22;27511;52.042;5.178;2022-07-04T10:38:51;22.90;99.90
41838;DHT22;27511;52.042;5.178;2022-07-04T10:41:17;23.10;99.90
41838;DHT22;27511;52.042;5.178;2022-07-04T10:43:59;23.30;99.90
41838;DHT22;27511;52.042;5.178;2022-07-04T10:51:48;23.50;99.90
41838;DHT22;27511;52.042;5.178;2022-07-04T10:54:16;23.50;99.90
41838;DHT22;27511;52.042;5.178;2022-07-04T10:56:54;23.60;99.90
41838;DHT22;27511;52.042;5.178;2022-07-04T10:59:24;23.70;99.90
41838;DHT22;27511;52.042;5.178;2022-07-04T11:07:09;23.50;99.90
41838;DHT22;27511;52.042;5.178;2022-07-04T11:09:36;23.40;99.90
41838;DHT22;27511;52.042;5.178;2022-07-04T11:12:03;23.50;99.90
41838;DHT22;27511;52.042;5.178;2022-07-04T11:17:09;23.70;99.90
41838;DHT22;27511;52.042;5.178;2022-07-04T11:19:36;23.80;99.90
41838;DHT22;27511;52.042;5.178;2022-07-04T11:22:02;24.00;99.90
41838;DHT22;27511;52.042;5.178;2022-07-04T11:24:30;24.00;99.90
41838;DHT22;27511;52.042;5.178;2022-07-04T11:26:56;24.10;99.90
41838;DHT22;27511;52.042;5.178;2022-07-04T11:29:21;24.10;99.90
41838;DHT22;27511;52.042;5.178;2022-07-04T11:31:49;24.10;99.90
41838;DHT22;27511;52.042;5.178;2022-07-04T11:34:15;24.20;99.90
41838;DHT22;27511;52.042;5.178;2022-07-04T11:36:42;24.10;99.90
41838;DHT22;27511;52.042;5.178;2022-07-04T11:39:09;23.90;99.90
41838;DHT22;27511;52.042;5.178;2022-07-04T11:41:40;24.00;99.90
41838;DHT22;27511;52.042;5.178;2022-07-04T11:44:27;24.00;99.90
41838;DHT22;27511;52.042;5.178;2022-07-04T11:47:14;24.20;99.90
41838;DHT22;27511;52.042;5.178;2022-07-04T11:49:49;24.20;99.90
41838;DHT22;27511;52.042;5.178;2022-07-04T11:52:17;24.40;99.90
41838;DHT22;27511;52.042;5.178;2022-07-04T11:54:45;24.30;99.90
41838;DHT22;27511;52.042;5.178;2022-07-04T11:57:22;24.20;99.90
41838;DHT22;27511;52.042;5.178;2022-07-04T11:59:59;24.10;99.90
41838;DHT22;27511;52.042;5.178;2022-07-04T12:02:27;24.10;99.90
41838;DHT22;27511;52.042;5.178;2022-07-04T12:04:53;24.30;99.90
41838;DHT22;27511;52.042;5.178;2022-07-04T12:07:22;24.40;99.90
41838;DHT22;27511;52.042;5.178;2022-07-04T12:09:48;24.40;99.90
41838;DHT22;27511;52.042;5.178;2022-07-04T12:12:15;24.40;99.90
41838;DHT22;27511;52.042;5.178;2022-07-04T12:15:05;24.60;99.90
41838;DHT22;27511;52.042;5.178;2022-07-04T12:17:35;24.60;99.90
41838;DHT22;27511;52.042;5.178;2022-07-04T12:20:22;24.60;99.90
41838;DHT22;27511;52.042;5.178;2022-07-04T12:22:57;24.50;99.90
41838;DHT22;27511;52.042;5.178;2022-07-04T12:25:33;24.60;99.90
41838;DHT22;27511;52.042;5.178;2022-07-04T12:28:12;24.70;99.90
41838;DHT22;27511;52.042;5.178;2022-07-04T12:31:00;24.80;99.90
41838;DHT22;27511;52.042;5.178;2022-07-04T12:33:27;24.80;99.90
41838;DHT22;27511;52.042;5.178;2022-07-04T12:35:58;24.90;99.90
41838;DHT22;27511;52.042;5.178;2022-07-04T12:41:11;25.00;99.90
41838;DHT22;27511;52.042;5.178;2022-07-04T12:48:54;25.20;99.90
41838;DHT22;27511;52.042;5.178;2022-07-04T12:51:25;25.20;99.90
41838;DHT22;27511;52.042;5.178;2022-07-04T12:53:53;25.20;99.90
41838;DHT22;27511;52.042;5.178;2022-07-04T12:56:43;25.20;99.90
41838;DHT22;27511;52.042;5.178;2022-07-04T12:59:13;25.30;99.90
41838;DHT22;27511;52.042;5.178;2022-07-04T13:01:46;25.50;99.90
41838;DHT22;27511;52.042;5.178;2022-07-04T13:04:12;25.50;99.90
41838;DHT22;27511;52.042;5.178;2022-07-04T13:06:38;25.60;99.90
41838;DHT22;27511;52.042;5.178;2022-07-04T13:09:05;25.80;99.90
41838;DHT22;27511;52.042;5.178;2022-07-04T13:11:33;25.90;99.90
41838;DHT22;27511;52.042;5.178;2022-07-04T13:14:19;26.00;99.90
41838;DHT22;27511;52.042;5.178;2022-07-04T13:16:44;25.90;99.90
41838;DHT22;27511;52.042;5.178;2022-07-04T13:19:10;26.00;99.90
41838;DHT22;27511;52.042;5.178;2022-07-04T13:21:38;26.20;99.90
41838;DHT22;27511;52.042;5.178;2022-07-04T13:24:05;26.30;99.90
41838;DHT22;27511;52.042;5.178;2022-07-04T13:26:30;26.20;99.90
41838;DHT22;27511;52.042;5.178;2022-07-04T13:28:58;26.20;99.90
41838;DHT22;27511;52.042;5.178;2022-07-04T13:31:24;26.10;99.90
41838;DHT22;27511;52.042;5.178;2022-07-04T13:33:49;26.20;99.90
41838;DHT22;27511;52.042;5.178;2022-07-04T13:36:15;26.30;99.90
41838;DHT22;27511;52.042;5.178;2022-07-04T13:38:43;26.40;99.90
41838;DHT22;27511;52.042;5.178;2022-07-04T13:41:09;26.30;99.90
41838;DHT22;27511;52.042;5.178;2022-07-04T13:43:34;26.20;99.90
41838;DHT22;27511;52.042;5.178;2022-07-04T13:46:00;26.20;99.90
41838;DHT22;27511;52.042;5.178;2022-07-04T13:48:25;26.00;99.90
41838;DHT22;27511;52.042;5.178;2022-07-04T13:50:51;26.20;99.90
41838;DHT22;27511;52.042;5.178;2022-07-04T13:53:17;26.40;99.90
41838;DHT22;27511;52.042;5.178;2022-07-04T13:55:42;26.50;99.90
41838;DHT22;27511;52.042;5.178;2022-07-04T13:58:10;26.80;99.90
41838;DHT22;27511;52.042;5.178;2022-07-04T14:00:37;26.80;99.90
41838;DHT22;27511;52.042;5.178;2022-07-04T14:03:04;26.90;99.90
41838;DHT22;27511;52.042;5.178;2022-07-04T14:05:30;27.20;99.90
41838;DHT22;27511;52.042;5.178;2022-07-04T14:07:56;27.20;99.90
41838;DHT22;27511;52.042;5.178;2022-07-04T14:10:21;27.20;99.90
41838;DHT22;27511;52.042;5.178;2022-07-04T14:12:47;27.20;99.90
41838;DHT22;27511;52.042;5.178;2022-07-04T14:15:13;27.40;99.90
41838;DHT22;27511;52.042;5.178;2022-07-04T14:17:39;27.50;99.90
41838;DHT22;27511;52.042;5.178;2022-07-04T14:20:06;27.60;99.90
41838;DHT22;27511;52.042;5.178;2022-07-04T14:22:34;27.60;99.90
41838;DHT22;27511;52.042;5.178;2022-07-04T14:24:59;27.50;99.90
41838;DHT22;27511;52.042;5.178;2022-07-04T14:27:25;27.50;99.90
41838;DHT22;27511;52.042;5.178;2022-07-04T14:29:51;27.40;99.90
41838;DHT22;27511;52.042;5.178;2022-07-04T14:32:16;27.50;99.90
41838;DHT22;27511;52.042;5.178;2022-07-04T14:34:42;27.40;99.90
41838;DHT22;27511;52.042;5.178;2022-07-04T14:37:08;27.50;99.90
41838;DHT22;27511;52.042;5.178;2022-07-04T14:39:34;27.70;99.90
41838;DHT22;27511;52.042;5.178;2022-07-04T14:41:59;27.80;99.90
41838;DHT22;27511;52.042;5.178;2022-07-04T14:44:25;27.90;99.90
41838;DHT22;27511;52.042;5.178;2022-07-04T14:46:50;27.80;99.90
41838;DHT22;27511;52.042;5.178;2022-07-04T14:49:16;27.80;99.90
41838;DHT22;27511;52.042;5.178;2022-07-04T14:51:41;27.70;99.90
41838;DHT22;27511;52.042;5.178;2022-07-04T14:54:08;27.60;99.90
41838;DHT22;27511;52.042;5.178;2022-07-04T14:56:34;27.40;99.90
41838;DHT22;27511;52.042;5.178;2022-07-04T14:59:00;27.60;99.90
41838;DHT22;27511;52.042;5.178;2022-07-04T15:01:26;27.60;99.90
41838;DHT22;27511;52.042;5.178;2022-07-04T15:03:54;27.60;99.90
41838;DHT22;27511;52.042;5.178;2022-07-04T15:06:20;27.70;99.90
41838;DHT22;27511;52.042;5.178;2022-07-04T15:08:46;27.80;99.90
41838;DHT22;27511;52.042;5.178;2022-07-04T15:11:11;27.90;99.90
41838;DHT22;27511;52.042;5.178;2022-07-04T15:13:37;28.00;99.90
41838;DHT22;27511;52.042;5.178;2022-07-04T15:16:03;28.10;99.90
41838;DHT22;27511;52.042;5.178;2022-07-04T15:18:29;28.10;99.90
41838;DHT22;27511;52.042;5.178;2022-07-04T15:20:54;28.00;99.90
41838;DHT22;27511;52.042;5.178;2022-07-04T15:23:38;28.10;99.90
41838;DHT22;27511;52.042;5.178;2022-07-04T15:26:22;28.20;99.90
41838;DHT22;27511;52.042;5.178;2022-07-04T15:28:48;28.40;99.90
41838;DHT22;27511;52.042;5.178;2022-07-04T15:31:14;28.70;99.90
41838;DHT22;27511;52.042;5.178;2022-07-04T15:33:39;29.10;99.90
41838;DHT22;27511;52.042;5.178;2022-07-04T15:36:05;30.20;99.90
41838;DHT22;27511;52.042;5.178;2022-07-04T15:38:31;31.60;99.90
41838;DHT22;27511;52.042;5.178;2022-07-04T15:40:57;31.80;99.90
41838;DHT22;27511;52.042;5.178;2022-07-04T15:43:25;31.50;99.90
41838;DHT22;27511;52.042;5.178;2022-07-04T15:45:50;31.10;99.90
41838;DHT22;27511;52.042;5.178;2022-07-04T15:48:16;31.10;99.90
41838;DHT22;27511;52.042;5.178;2022-07-04T15:50:42;31.50;99.90
41838;DHT22;27511;52.042;5.178;2022-07-04T15:53:07;32.70;99.90
41838;DHT22;27511;52.042;5.178;2022-07-04T15:55:33;33.80;99.90